[source: ADDS]
METAR
EDVE 301950Z 10003KT CAVOK 10/09 Q1013

TAF EDVE 301700Z 3018/3021 13004KT 9999 FEW035 EDDV 302250Z 12003KT 080V150 CAVOK 13/11 Q1011

TAF EDDV 301700Z 3018/0118 13004KT 9999 FEW035 PROB30 TEMPO 0104/0106 4000 BR BECMG 0107/0110 15011KT BECMG 0116/0118 16005KT ETHS 302220Z 11003KT 9999 MIFG 07/07 Q1012 BLU+

TAF ETHS 301320Z 3014/3023 15005KT 9999 NSW SCT025 SCT280 TEMPO 3018/3023 VRB02KT 6000 MIFG FEW030 ETHC 302220Z 07004KT 9999 FEW280 11/10 Q1012 BLU+

TAF ETHC 301328Z 3014/3023 10004KT 9999 NSW SCT025 TEMPO 3014/3017 12005KT 9999 NSW BKN020 EDVK 301850Z 22004KT 9999 BKN031 13/11 Q1013

TAF EDVK 301700Z 3018/0103 15003KT 9999 FEW030 PROB30 TEMPO 0100/0103 2500 BR
TAF
TAF EDVE 301700Z 3018/3021 13004KT 9999 FEW035

TAF EDDV 301700Z 3018/0118 13004KT 9999 FEW035 PROB30 TEMPO 0104/0106 4000 BR BECMG 0107/0110 15011KT BECMG 0116/0118 16005KT

TAF ETHS 301320Z 3014/3023 15005KT 9999 NSW SCT025 SCT280 TEMPO 3018/3023 VRB02KT 6000 MIFG FEW030

TAF ETHC 301328Z 3014/3023 10004KT 9999 NSW SCT025 TEMPO 3014/3017 12005KT 9999 NSW BKN020

TAF EDVK 301700Z 3018/0103 15003KT 9999 FEW030 PROB30 TEMPO 0100/0103 2500 BR

SR / SS: 05:19 / 16:54 UTC (EDVE 2020-10-01)
Wir begrüßen Holger als neues Mitglied der FFG! Viel Erfolg bei der Ausbildung! +++ Willkommen in der FFG, Timon! Viel Erfolg bei der Ausbildung! +++ Florian hat seine Fluglehrer-Anwärterzeit beendet. Wir wünschen weiterhin viel Erfolg beim Ausbilden! +++ Wir begrüßen Stefan in den Reihen der FFG! Viel Erfolg bei der Ausbildung! +++ Herzlich willkommen Dominic! Viel Spass bei der Ausbildung! +++ Wir heißen Fabian als neuen Flugschüler willkommen und wünschen eine erfolgreiche Ausbildung! +++ Wir begrüßen Oussama als neues Mitglied der FFG! Viel Erfolg bei der Ausbildung! +++ Willkommen in der FFG Paul! Viel Erfolg bei der Ausbildung! +++ Wir begrüßen Julian und Martin als neue Mitglieder der FFG! Viel Erfolg bei der Ausbildung! +++ Oliver hat seinen ersten Alleinflug absolviert! Herzlichen Glückwunsch und weiterhin Happy Landings!

Neues Bild in 60 Sekunden

Letztes NOTAM EDVE
von 30.09.2020 0736Z bis 30.12.2020 2359Z
SID CHG, DUE TO OUTAGE OF DLE DVOR/DME: GPS/FMS RNAV OVERLAY REMAIN UNCHANGED. AMEND DLE DVOR/DME TO READ DLE INT. PSN REMAINS UNCHANG [more]

Letztes NOTAM EDCB
von 01.09.2020 0700Z bis 24.10.2020 2359Z
0700-1600
HOURS OF OPERATION CHANGED: 0700-1600, OTHER TIMES PPR.

Letztes NOTAM EDBC
von 02.09.2020 0006Z bis 01.12.2020 2359Z
AD CLSD.

Letztes NOTAM EDVM
von 26.09.2020 1557Z bis PERM
DROPPING ZONE HILDESHEIM 521047N 0095644E, HOURS OF OPERATION DAILY SR-SS+30. AIP GERMANY ENR 5.5-2 REFERS.
GND- FL100

Letztes NOTAM EDDV
von 30.09.2020 0735Z bis 30.12.2020 2359Z
SID CHG, DUE TO OUTAGE OF DLE DVOR/DME: GPS (FMS) RNAV OVERLAY REMAINS UNCHANGED. RWY 09L/R - WERRA 3Y/3G AND WRB 3Y/1G, CLIMB WITH 6. [more]

Letztes NOTAM EDVK
von 08.10.2020 0000Z bis 17.12.2020 2359Z
BREMEN RADAR FREQ CHANGED TO READ 126.655MHZ. CHANGES ARE PERM.

Letztes NOTAM EDVS
von 03.08.2020 0917Z bis 01.11.2020 2359Z
AD AVBL ONLY FOR HOMEBASED PILOTS.

          aerodata150     Radio38